createdAt,value
2019-01-09T00:02:06.647Z,3.65
2019-01-09T00:04:33.364Z,3.02
2019-01-09T00:07:00.165Z,3.77
2019-01-09T00:09:26.974Z,2.98
2019-01-09T00:11:53.683Z,3.47
2019-01-09T00:14:20.411Z,3.10
2019-01-09T00:16:47.115Z,3.02
2019-01-09T00:19:13.836Z,3.12
2019-01-09T00:21:40.746Z,3.70
2019-01-09T00:24:07.667Z,3.17
2019-01-09T00:26:34.483Z,3.15
2019-01-09T00:29:01.392Z,2.90
2019-01-09T00:31:28.111Z,2.90
2019-01-09T00:33:54.916Z,3.22
2019-01-09T00:36:21.628Z,2.50
2019-01-09T00:38:48.547Z,3.30
2019-01-09T00:41:15.453Z,3.40
2019-01-09T00:43:42.359Z,3.60
2019-01-09T00:46:09.264Z,3.22
2019-01-09T00:48:36.284Z,2.90
2019-01-09T00:51:03.188Z,3.08
2019-01-09T00:53:29.987Z,3.27
2019-01-09T00:55:56.799Z,2.70
2019-01-09T00:58:23.700Z,3.20
2019-01-09T01:00:50.619Z,3.25
2019-01-09T01:03:49.347Z,3.30
2019-01-09T01:06:55.404Z,3.05
2019-01-09T01:10:03.124Z,2.83
2019-01-09T01:13:07.194Z,3.58
2019-01-09T01:16:16.239Z,2.75
2019-01-09T01:19:31.262Z,2.95
2019-01-09T01:22:03.907Z,3.62
2019-01-09T01:25:07.179Z,2.83
2019-01-09T01:28:17.745Z,3.20
2019-01-09T01:31:05.558Z,2.55
2019-01-09T01:33:41.692Z,3.20
2019-01-09T01:36:28.431Z,3.33
2019-01-09T01:39:29.211Z,3.27
2019-01-09T01:42:10.543Z,2.37
2019-01-09T01:45:00.032Z,2.40
2019-01-09T01:48:00.206Z,2.40
2019-01-09T01:50:53.951Z,2.60
2019-01-09T01:54:14.892Z,2.25
2019-01-09T01:57:24.079Z,2.20
2019-01-09T02:00:04.467Z,2.20
2019-01-09T02:02:57.797Z,1.85
2019-01-09T02:05:46.347Z,2.00
2019-01-09T02:08:55.572Z,2.40
2019-01-09T02:11:47.720Z,2.15
2019-01-09T02:14:41.502Z,1.57
2019-01-09T02:17:50.367Z,1.77
2019-01-09T02:21:00.243Z,1.50
2019-01-09T02:23:50.475Z,1.45
2019-01-09T02:26:41.478Z,1.50
2019-01-09T02:29:21.010Z,1.55
2019-01-09T02:32:10.596Z,1.50
2019-01-09T02:34:37.302Z,1.02
2019-01-09T02:37:04.013Z,1.45
2019-01-09T02:39:30.715Z,1.42
2019-01-09T02:41:57.425Z,1.10
2019-01-09T02:44:32.109Z,1.32
2019-01-09T02:46:52.748Z,1.50
2019-01-09T02:49:19.568Z,1.32
2019-01-09T02:51:46.267Z,1.17
2019-01-09T02:54:12.978Z,1.57
2019-01-09T02:56:39.683Z,1.60
2019-01-09T02:59:06.391Z,1.70
2019-01-09T03:01:33.191Z,1.55
2019-01-09T03:03:59.884Z,1.65
2019-01-09T03:06:26.587Z,1.50
2019-01-09T03:08:53.283Z,1.50
2019-01-09T03:11:19.984Z,1.42
2019-01-09T03:13:46.688Z,1.57
2019-01-09T03:16:13.395Z,1.60
2019-01-09T03:18:40.091Z,1.72
2019-01-09T03:21:06.795Z,1.40
2019-01-09T03:23:33.605Z,1.50
2019-01-09T03:26:00.309Z,1.65
2019-01-09T03:28:27.120Z,1.80
2019-01-09T03:30:54.088Z,1.85
2019-01-09T03:33:20.890Z,1.42
2019-01-09T03:35:47.683Z,1.80
2019-01-09T03:38:14.511Z,1.90
2019-01-09T03:40:41.311Z,1.82
2019-01-09T03:43:08.120Z,1.80
2019-01-09T03:45:34.915Z,2.10
2019-01-09T03:48:01.631Z,1.90
2019-01-09T03:50:28.327Z,1.67
2019-01-09T03:52:55.035Z,2.75
2019-01-09T03:55:21.763Z,2.42
2019-01-09T03:57:48.557Z,2.05
2019-01-09T04:00:15.283Z,2.27
2019-01-09T04:02:42.311Z,2.47
2019-01-09T04:05:09.119Z,2.12
2019-01-09T04:07:35.920Z,2.62
2019-01-09T04:10:03.392Z,2.20
2019-01-09T04:12:30.083Z,2.33
2019-01-09T04:14:56.784Z,2.87
2019-01-09T04:17:23.484Z,3.10
2019-01-09T04:19:50.186Z,2.10
2019-01-09T04:22:16.894Z,2.62
2019-01-09T04:24:43.595Z,3.02
2019-01-09T04:27:10.306Z,2.60
2019-01-09T04:29:37.011Z,2.30
2019-01-09T04:32:03.706Z,2.90
2019-01-09T04:34:30.416Z,2.33
2019-01-09T04:36:57.116Z,2.35
2019-01-09T04:39:23.819Z,2.80
2019-01-09T04:41:50.533Z,2.30
2019-01-09T04:44:17.257Z,2.37
2019-01-09T04:46:43.950Z,2.60
2019-01-09T04:49:10.653Z,2.90
2019-01-09T04:51:37.376Z,2.10
2019-01-09T04:54:04.084Z,2.25
2019-01-09T04:56:30.798Z,2.10
2019-01-09T04:58:57.493Z,2.12
2019-01-09T05:01:24.200Z,2.10
2019-01-09T05:03:50.915Z,1.98
2019-01-09T05:06:17.721Z,1.80
2019-01-09T05:08:44.427Z,2.10
2019-01-09T05:11:11.127Z,2.50
2019-01-09T05:13:37.834Z,2.40
2019-01-09T05:16:04.543Z,2.00
2019-01-09T05:18:31.269Z,2.35
2019-01-09T05:20:58.109Z,1.80
2019-01-09T05:23:24.927Z,1.95
2019-01-09T05:25:51.635Z,2.15
2019-01-09T05:28:18.353Z,2.20
2019-01-09T05:30:45.051Z,2.37
2019-01-09T05:33:11.756Z,2.10
2019-01-09T05:35:38.479Z,1.77
2019-01-09T05:38:05.182Z,2.27
2019-01-09T05:40:32.339Z,2.67
2019-01-09T05:42:59.046Z,2.30
2019-01-09T05:45:25.748Z,2.60
2019-01-09T05:47:52.459Z,2.47
2019-01-09T05:50:19.163Z,2.60
2019-01-09T05:52:46.304Z,2.37
2019-01-09T05:55:13.003Z,3.00
2019-01-09T05:57:39.703Z,2.10
2019-01-09T06:00:07.323Z,2.52
2019-01-09T06:02:34.027Z,3.08
2019-01-09T06:05:00.743Z,3.30
2019-01-09T06:07:27.438Z,2.80
2019-01-09T06:09:54.218Z,2.90
2019-01-09T06:12:20.939Z,2.70
2019-01-09T06:14:47.644Z,3.05
2019-01-09T06:17:14.371Z,3.22
2019-01-09T06:19:41.076Z,3.12
2019-01-09T06:22:07.785Z,2.80
2019-01-09T06:24:34.491Z,2.80
2019-01-09T06:27:01.295Z,3.00
2019-01-09T06:29:28.004Z,2.72
2019-01-09T06:31:54.708Z,3.35
2019-01-09T06:34:21.404Z,3.12
2019-01-09T06:36:48.127Z,3.20
2019-01-09T06:39:14.823Z,2.87
2019-01-09T06:41:41.540Z,3.17
2019-01-09T06:44:08.247Z,2.60
2019-01-09T06:46:35.452Z,2.65
2019-01-09T06:49:02.148Z,2.42
2019-01-09T06:51:28.851Z,2.80
2019-01-09T06:53:55.593Z,2.70
2019-01-09T06:56:22.619Z,2.52
2019-01-09T06:58:49.331Z,2.27
2019-01-09T07:01:16.052Z,2.60
2019-01-09T07:03:42.811Z,2.70
2019-01-09T07:06:09.522Z,2.65
2019-01-09T07:08:36.225Z,2.50
2019-01-09T07:11:03.037Z,2.70
2019-01-09T07:13:29.738Z,3.10
2019-01-09T07:15:56.451Z,3.10
2019-01-09T07:18:23.151Z,3.08
2019-01-09T07:20:49.867Z,3.10
2019-01-09T07:23:16.855Z,3.20
2019-01-09T07:25:43.559Z,2.98
2019-01-09T07:28:10.263Z,3.00
2019-01-09T07:30:37.391Z,2.80
2019-01-09T07:33:04.095Z,3.30
2019-01-09T07:35:30.807Z,2.70
2019-01-09T07:37:57.519Z,3.10
2019-01-09T07:40:24.419Z,3.02
2019-01-09T07:42:51.115Z,3.33
2019-01-09T07:45:17.823Z,3.52
2019-01-09T07:47:44.526Z,3.27
2019-01-09T07:50:11.739Z,3.35
2019-01-09T07:52:38.463Z,4.08
2019-01-09T07:55:05.371Z,2.75
2019-01-09T07:57:32.454Z,3.05
2019-01-09T07:59:59.259Z,3.20
2019-01-09T08:02:25.967Z,3.22
2019-01-09T08:04:52.716Z,3.30
2019-01-09T08:07:19.528Z,3.20
2019-01-09T08:09:46.235Z,2.98
2019-01-09T08:12:12.943Z,2.92
2019-01-09T08:14:39.652Z,3.30
2019-01-09T08:17:06.367Z,3.22
2019-01-09T08:19:33.439Z,2.87
2019-01-09T08:22:00.480Z,3.15
2019-01-09T08:24:27.175Z,2.72
2019-01-09T08:26:53.875Z,2.12
2019-01-09T08:29:20.784Z,2.27
2019-01-09T08:31:47.479Z,2.60
2019-01-09T08:34:14.183Z,2.37
2019-01-09T08:36:40.891Z,2.10
2019-01-09T08:39:07.707Z,2.35
2019-01-09T08:41:34.508Z,2.12
2019-01-09T08:44:01.217Z,2.05
2019-01-09T08:46:27.929Z,2.20
2019-01-09T08:48:54.636Z,2.20
2019-01-09T08:51:21.350Z,2.15
2019-01-09T08:53:48.064Z,2.42
2019-01-09T08:56:14.790Z,2.27
2019-01-09T08:58:41.495Z,2.58
2019-01-09T09:01:08.216Z,2.35
2019-01-09T09:03:34.920Z,2.00
2019-01-09T09:06:02.012Z,2.50
2019-01-09T09:08:30.323Z,2.50
2019-01-09T09:10:57.122Z,2.20
2019-01-09T09:13:32.931Z,2.00
2019-01-09T09:15:59.663Z,2.40
2019-01-09T09:18:26.386Z,2.80
2019-01-09T09:20:53.091Z,2.08
2019-01-09T09:23:19.795Z,2.33
2019-01-09T09:25:46.503Z,2.67
2019-01-09T09:28:13.623Z,2.22
2019-01-09T09:30:40.335Z,2.45
2019-01-09T09:33:07.035Z,2.30
2019-01-09T09:35:34.155Z,2.00
2019-01-09T09:38:00.859Z,2.30
2019-01-09T09:40:28.083Z,2.50
2019-01-09T09:42:54.791Z,2.47
2019-01-09T09:45:21.521Z,2.85
2019-01-09T09:47:48.228Z,2.65
2019-01-09T09:50:15.864Z,2.67
2019-01-09T09:52:42.567Z,2.67
2019-01-09T09:55:12.952Z,2.67
2019-01-09T09:57:38.199Z,3.08
2019-01-09T10:00:08.052Z,2.70
2019-01-09T10:02:34.870Z,2.65
2019-01-09T10:05:01.580Z,3.02
2019-01-09T10:07:28.280Z,3.00
2019-01-09T10:09:54.984Z,2.90
2019-01-09T10:12:21.695Z,3.27
2019-01-09T10:14:48.403Z,2.55
2019-01-09T10:17:15.121Z,3.27
2019-01-09T10:19:41.835Z,2.90
2019-01-09T10:22:08.754Z,3.37
2019-01-09T10:24:35.471Z,3.47
2019-01-09T10:27:02.471Z,3.65
2019-01-09T10:29:29.207Z,3.22
2019-01-09T10:31:55.915Z,3.55
2019-01-09T10:34:22.731Z,3.70
2019-01-09T10:36:49.431Z,3.60
2019-01-09T10:39:16.312Z,3.40
2019-01-09T10:41:43.025Z,3.12
2019-01-09T10:44:09.732Z,3.42
2019-01-09T10:46:36.459Z,3.30
2019-01-09T10:49:03.764Z,3.63
2019-01-09T10:51:30.582Z,3.90
2019-01-09T10:53:57.293Z,3.50
2019-01-09T10:56:23.995Z,3.83
2019-01-09T10:58:50.727Z,4.30
2019-01-09T11:01:17.435Z,3.43
2019-01-09T11:03:44.140Z,3.57
2019-01-09T11:06:10.967Z,4.17
2019-01-09T11:08:46.569Z,3.27
2019-01-09T11:11:06.275Z,3.50
2019-01-09T11:13:32.977Z,3.50
2019-01-09T11:16:00.044Z,3.80
2019-01-09T11:18:26.751Z,3.60
2019-01-09T11:20:53.466Z,3.33
2019-01-09T11:23:20.171Z,3.33
2019-01-09T11:25:46.987Z,3.23
2019-01-09T11:28:13.698Z,3.07
2019-01-09T11:30:40.407Z,4.33
2019-01-09T11:33:07.218Z,3.60
2019-01-09T11:35:33.925Z,3.07
2019-01-09T11:38:00.651Z,3.50
2019-01-09T11:40:27.455Z,3.50
2019-01-09T11:42:54.171Z,3.13
2019-01-09T11:45:21.551Z,3.53
2019-01-09T11:47:48.461Z,2.37
2019-01-09T11:50:15.839Z,3.83
2019-01-09T11:52:42.647Z,3.00
2019-01-09T11:55:10.992Z,3.47
2019-01-09T11:57:37.703Z,2.83
2019-01-09T12:00:09.023Z,3.10
2019-01-09T12:02:35.729Z,2.77
2019-01-09T12:05:03.079Z,3.57
2019-01-09T12:07:29.787Z,2.50
2019-01-09T12:09:56.939Z,3.00
2019-01-09T12:12:23.651Z,2.60
2019-01-09T12:14:50.358Z,3.40
2019-01-09T12:17:17.503Z,3.07
2019-01-09T12:19:44.203Z,2.60
2019-01-09T12:22:11.017Z,3.30
2019-01-09T12:24:37.719Z,3.00
2019-01-09T12:27:04.432Z,2.93
2019-01-09T12:29:31.147Z,3.00
2019-01-09T12:31:57.852Z,3.63
2019-01-09T12:34:24.568Z,2.57
2019-01-09T12:36:51.267Z,3.57
2019-01-09T12:39:17.983Z,3.27
2019-01-09T12:41:44.695Z,3.70
2019-01-09T12:44:11.411Z,3.17
2019-01-09T12:46:38.106Z,3.40
2019-01-09T12:49:05.023Z,2.63
2019-01-09T12:51:31.734Z,2.87
2019-01-09T12:53:58.438Z,3.17
2019-01-09T12:56:25.149Z,2.90
2019-01-09T12:58:51.851Z,2.97
2019-01-09T13:01:18.568Z,3.10
2019-01-09T13:03:45.275Z,3.03
2019-01-09T13:06:12.095Z,2.97
2019-01-09T13:08:38.902Z,2.57
2019-01-09T13:11:06.006Z,2.60
2019-01-09T13:13:32.698Z,2.67
2019-01-09T13:15:59.407Z,3.00
2019-01-09T13:18:26.224Z,2.23
2019-01-09T13:20:53.015Z,2.47
2019-01-09T13:23:19.723Z,2.10
2019-01-09T13:25:46.535Z,2.90
2019-01-09T13:28:13.247Z,3.00
2019-01-09T13:30:39.955Z,2.03
2019-01-09T13:33:06.759Z,2.53
2019-01-09T13:35:33.583Z,2.40
2019-01-09T13:38:00.311Z,2.50
2019-01-09T13:40:27.121Z,2.57
2019-01-09T13:42:53.818Z,2.63
2019-01-09T13:45:21.355Z,2.27
2019-01-09T13:47:48.263Z,2.60
2019-01-09T13:50:15.644Z,2.37
2019-01-09T13:52:43.096Z,3.00
2019-01-09T13:55:11.203Z,2.43
2019-01-09T13:57:38.115Z,2.03
2019-01-09T14:00:07.768Z,2.40
2019-01-09T14:02:35.183Z,2.20
2019-01-09T14:05:03.786Z,2.47
2019-01-09T14:07:30.743Z,2.33
2019-01-09T14:09:57.448Z,2.87
2019-01-09T14:12:24.167Z,1.93
2019-01-09T14:14:50.855Z,2.30
2019-01-09T14:17:17.571Z,2.23
2019-01-09T14:19:44.287Z,2.00
2019-01-09T14:22:10.992Z,1.73
2019-01-09T14:24:37.695Z,1.87
2019-01-09T14:27:04.508Z,1.80
2019-01-09T14:29:31.686Z,2.30
2019-01-09T14:31:58.387Z,2.33
2019-01-09T14:34:25.384Z,2.43
2019-01-09T14:36:52.083Z,1.70
2019-01-09T14:39:18.811Z,2.00
2019-01-09T14:41:45.519Z,2.20
2019-01-09T14:44:12.231Z,1.70
2019-01-09T14:46:39.047Z,1.60
2019-01-09T14:49:05.854Z,1.77
2019-01-09T14:51:32.567Z,1.63
2019-01-09T14:53:59.271Z,1.50
2019-01-09T14:56:25.974Z,1.90
2019-01-09T14:58:52.765Z,1.80
2019-01-09T15:01:19.596Z,1.70
2019-01-09T15:03:46.384Z,1.60
2019-01-09T15:06:13.143Z,1.63
2019-01-09T15:08:39.959Z,2.03
2019-01-09T15:11:06.763Z,1.52
2019-01-09T15:13:33.577Z,1.87
2019-01-09T15:16:00.299Z,2.10
2019-01-09T15:18:27.116Z,1.67
2019-01-09T15:20:54.031Z,2.10
2019-01-09T15:23:20.743Z,2.00
2019-01-09T15:25:49.035Z,2.27
2019-01-09T15:28:15.985Z,2.62
2019-01-09T15:30:42.689Z,1.60
2019-01-09T15:33:09.815Z,2.03
2019-01-09T15:35:36.539Z,2.10
2019-01-09T15:38:03.285Z,1.90
2019-01-09T15:40:30.628Z,2.45
2019-01-09T15:42:57.470Z,1.85
2019-01-09T15:45:24.455Z,2.05
2019-01-09T15:47:51.282Z,1.82
2019-01-09T15:50:18.966Z,1.90
2019-01-09T15:52:45.715Z,1.80
2019-01-09T15:55:13.386Z,2.10
2019-01-09T15:57:40.329Z,1.90
2019-01-09T16:00:14.851Z,1.85
2019-01-09T16:02:41.673Z,1.75
2019-01-09T16:05:08.795Z,1.45
2019-01-09T16:07:35.523Z,1.75
2019-01-09T16:10:02.948Z,1.75
2019-01-09T16:12:29.956Z,1.85
2019-01-09T16:14:56.679Z,1.62
2019-01-09T16:17:23.399Z,1.82
2019-01-09T16:19:50.101Z,2.17
2019-01-09T16:22:16.911Z,1.90
2019-01-09T16:24:43.715Z,1.82
2019-01-09T16:27:10.428Z,2.02
2019-01-09T16:29:37.131Z,2.25
2019-01-09T16:32:03.843Z,1.90
2019-01-09T16:34:30.551Z,1.85
2019-01-09T16:36:57.277Z,2.08
2019-01-09T16:39:30.867Z,2.00
2019-01-09T16:41:52.787Z,2.30
2019-01-09T16:44:19.920Z,1.70
2019-01-09T16:46:46.629Z,2.45
2019-01-09T16:49:13.336Z,1.85
2019-01-09T16:51:40.063Z,2.08
2019-01-09T16:54:06.781Z,2.00
2019-01-09T16:56:34.132Z,2.20
2019-01-09T16:59:01.013Z,1.75
2019-01-09T17:01:27.935Z,2.10
2019-01-09T17:03:54.643Z,2.72
2019-01-09T17:06:21.712Z,2.42
2019-01-09T17:08:48.519Z,2.00
2019-01-09T17:11:15.427Z,2.40
2019-01-09T17:13:42.153Z,1.70
2019-01-09T17:16:08.855Z,2.00
2019-01-09T17:18:35.611Z,2.30
2019-01-09T17:21:02.864Z,2.12
2019-01-09T17:23:29.579Z,2.10
2019-01-09T17:25:56.399Z,1.90
2019-01-09T17:28:23.255Z,2.17
2019-01-09T17:30:49.991Z,2.33
2019-01-09T17:33:16.706Z,2.77
2019-01-09T17:35:43.415Z,2.77
2019-01-09T17:38:10.135Z,2.50
2019-01-09T17:40:41.290Z,2.33
2019-01-09T17:43:05.875Z,2.12
2019-01-09T17:45:32.578Z,2.00
2019-01-09T17:47:59.291Z,2.55
2019-01-09T17:50:31.383Z,2.08
2019-01-09T17:52:58.298Z,2.40
2019-01-09T17:55:25.104Z,3.10
2019-01-09T17:57:51.915Z,2.55
2019-01-09T18:00:21.339Z,2.72
2019-01-09T18:02:48.313Z,2.50
2019-01-09T18:05:15.816Z,2.98
2019-01-09T18:07:42.627Z,2.87
2019-01-09T18:10:16.029Z,2.60
2019-01-09T18:12:43.539Z,2.47
2019-01-09T18:15:11.063Z,2.08
2019-01-09T18:17:38.155Z,3.05
2019-01-09T18:20:06.401Z,2.62
2019-01-09T18:22:33.099Z,2.80
2019-01-09T18:25:00.603Z,2.47
2019-01-09T18:27:27.317Z,2.67
2019-01-09T18:29:54.415Z,2.17
2019-01-09T18:32:27.703Z,2.25
2019-01-09T18:35:07.616Z,2.25
2019-01-09T18:38:16.121Z,2.37
2019-01-09T18:41:05.176Z,2.67
2019-01-09T18:44:12.367Z,2.60
2019-01-09T18:47:16.648Z,3.10
2019-01-09T18:50:12.711Z,2.67
2019-01-09T18:52:47.232Z,2.02
2019-01-09T18:55:14.047Z,2.60
2019-01-09T18:57:40.867Z,2.90
2019-01-09T19:00:13.943Z,2.62
2019-01-09T19:02:40.747Z,2.87
2019-01-09T19:05:07.659Z,2.75
2019-01-09T19:07:34.455Z,2.50
2019-01-09T19:10:01.607Z,2.95
2019-01-09T19:12:28.410Z,2.70
2019-01-09T19:14:55.714Z,2.83
2019-01-09T19:17:22.519Z,3.08
2019-01-09T19:19:49.335Z,2.75
2019-01-09T19:22:16.145Z,4.65
2019-01-09T19:24:42.839Z,5.62
2019-01-09T19:27:09.762Z,5.33
2019-01-09T19:29:36.812Z,6.00
2019-01-09T19:32:04.367Z,3.85
2019-01-09T19:34:31.281Z,3.37
2019-01-09T19:36:58.079Z,3.05
2019-01-09T19:39:24.883Z,3.10
2019-01-09T19:41:51.575Z,3.10
2019-01-09T19:44:18.283Z,3.10
2019-01-09T19:46:45.089Z,3.00
2019-01-09T19:49:11.787Z,2.72
2019-01-09T19:51:38.698Z,3.37
2019-01-09T19:54:05.631Z,3.33
2019-01-09T19:56:32.450Z,3.10
2019-01-09T19:58:59.267Z,3.00
2019-01-09T20:01:25.968Z,3.05
2019-01-09T20:03:52.893Z,2.60
2019-01-09T20:06:19.803Z,2.92
2019-01-09T20:08:46.552Z,2.70
2019-01-09T20:11:13.464Z,2.85
2019-01-09T20:13:40.856Z,2.40
2019-01-09T20:16:07.820Z,2.58
2019-01-09T20:18:34.700Z,2.83
2019-01-09T20:21:01.555Z,3.58
2019-01-09T20:23:28.368Z,2.75
2019-01-09T20:25:55.199Z,2.90
2019-01-09T20:28:22.024Z,3.08
2019-01-09T20:30:48.849Z,2.77
2019-01-09T20:33:15.742Z,2.87
2019-01-09T20:35:42.634Z,3.17
2019-01-09T20:38:09.544Z,2.87
2019-01-09T20:40:36.347Z,2.55
2019-01-09T20:43:03.243Z,2.83
2019-01-09T20:45:30.271Z,2.70
2019-01-09T20:47:57.110Z,2.58
2019-01-09T20:50:27.041Z,3.15
2019-01-09T20:52:53.958Z,3.00
2019-01-09T20:55:21.479Z,2.70
2019-01-09T20:57:48.723Z,3.20
2019-01-09T21:00:18.663Z,2.90
2019-01-09T21:02:45.667Z,2.67
2019-01-09T21:05:16.348Z,2.87
2019-01-09T21:07:43.247Z,5.45
2019-01-09T21:10:11.113Z,19.87
2019-01-09T21:12:38.177Z,10.98
2019-01-09T21:15:06.479Z,4.30
2019-01-09T21:17:33.264Z,3.65
2019-01-09T21:20:00.158Z,3.35
2019-01-09T21:22:26.911Z,3.40
2019-01-09T21:24:53.704Z,2.85
2019-01-09T21:27:20.515Z,3.52
2019-01-09T21:29:47.229Z,3.42
2019-01-09T21:32:14.079Z,3.30
2019-01-09T21:34:40.983Z,2.75
2019-01-09T21:37:07.787Z,3.37
2019-01-09T21:39:34.605Z,3.12
2019-01-09T21:42:01.431Z,2.98
2019-01-09T21:44:28.140Z,2.90
2019-01-09T21:46:54.837Z,3.20
2019-01-09T21:49:21.643Z,3.10
2019-01-09T21:51:48.347Z,3.35
2019-01-09T21:54:15.294Z,3.17
2019-01-09T21:56:42.009Z,3.00
2019-01-09T21:59:08.807Z,3.15
2019-01-09T22:01:35.608Z,3.35
2019-01-09T22:04:02.518Z,3.00
2019-01-09T22:06:29.375Z,3.20
2019-01-09T22:08:56.574Z,3.00
2019-01-09T22:11:23.281Z,3.35
2019-01-09T22:13:50.091Z,2.80
2019-01-09T22:16:16.887Z,3.40
2019-01-09T22:18:43.695Z,2.72
2019-01-09T22:21:11.183Z,3.17
2019-01-09T22:23:37.987Z,2.83
2019-01-09T22:26:04.792Z,3.00
2019-01-09T22:28:31.601Z,3.12
2019-01-09T22:30:58.291Z,2.58
2019-01-09T22:33:25.199Z,3.00
2019-01-09T22:35:52.107Z,2.90
2019-01-09T22:38:19.117Z,3.02
2019-01-09T22:40:46.959Z,2.90
2019-01-09T22:43:13.667Z,2.77
2019-01-09T22:45:40.371Z,3.02
2019-01-09T22:48:07.179Z,3.10
2019-01-09T22:50:34.079Z,3.70
2019-01-09T22:53:01.091Z,3.37
2019-01-09T22:55:27.791Z,3.08
2019-01-09T22:57:54.607Z,3.58
2019-01-09T23:00:35.295Z,3.35
2019-01-09T23:03:03.215Z,3.40
2019-01-09T23:05:30.022Z,3.37
2019-01-09T23:07:56.727Z,3.05
2019-01-09T23:10:23.536Z,2.70
2019-01-09T23:12:50.253Z,3.42
2019-01-09T23:15:16.955Z,2.80
2019-01-09T23:17:43.744Z,3.02
2019-01-09T23:20:10.662Z,3.55
2019-01-09T23:22:37.363Z,3.05
2019-01-09T23:25:04.507Z,2.92
2019-01-09T23:27:31.319Z,3.08
2019-01-09T23:29:58.118Z,3.90
2019-01-09T23:32:25.032Z,2.70
2019-01-09T23:34:51.741Z,3.08
2019-01-09T23:37:18.564Z,3.42
2019-01-09T23:39:45.271Z,2.45
2019-01-09T23:42:12.079Z,3.02
2019-01-09T23:44:38.786Z,3.30
2019-01-09T23:47:05.483Z,4.53
2019-01-09T23:49:32.192Z,2.65
2019-01-09T23:51:58.896Z,3.40
2019-01-09T23:54:25.607Z,3.40
2019-01-09T23:56:52.319Z,3.15
2019-01-09T23:59:19.031Z,3.20
